sensor_id;sensor_type;location;lat;lon;timestamp;P1;durP1;ratioP1;P2;durP2;ratioP2
11490;SDS011;5802;52.832;4.758;2023-08-07T00:01:22;1.20;;;0.73;;
11490;SDS011;5802;52.832;4.758;2023-08-07T00:03:49;3.17;;;0.80;;
11490;SDS011;5802;52.832;4.758;2023-08-07T00:06:16;2.78;;;1.00;;
11490;SDS011;5802;52.832;4.758;2023-08-07T00:08:44;2.28;;;0.93;;
11490;SDS011;5802;52.832;4.758;2023-08-07T00:11:10;1.08;;;0.65;;
11490;SDS011;5802;52.832;4.758;2023-08-07T00:13:37;1.52;;;0.90;;
11490;SDS011;5802;52.832;4.758;2023-08-07T00:16:04;1.33;;;0.80;;
11490;SDS011;5802;52.832;4.758;2023-08-07T00:18:30;2.35;;;1.10;;
11490;SDS011;5802;52.832;4.758;2023-08-07T00:20:57;1.10;;;0.63;;
11490;SDS011;5802;52.832;4.758;2023-08-07T00:23:24;1.35;;;0.80;;
11490;SDS011;5802;52.832;4.758;2023-08-07T00:25:52;2.67;;;0.80;;
11490;SDS011;5802;52.832;4.758;2023-08-07T00:28:18;1.92;;;0.70;;
11490;SDS011;5802;52.832;4.758;2023-08-07T00:30:45;2.35;;;0.82;;
11490;SDS011;5802;52.832;4.758;2023-08-07T00:33:12;2.28;;;0.90;;
11490;SDS011;5802;52.832;4.758;2023-08-07T00:35:38;1.50;;;0.70;;
11490;SDS011;5802;52.832;4.758;2023-08-07T00:38:05;1.70;;;0.85;;
11490;SDS011;5802;52.832;4.758;2023-08-07T00:40:38;1.85;;;0.80;;
11490;SDS011;5802;52.832;4.758;2023-08-07T00:43:06;1.10;;;0.80;;
11490;SDS011;5802;52.832;4.758;2023-08-07T00:45:34;2.00;;;1.00;;
11490;SDS011;5802;52.832;4.758;2023-08-07T00:48:03;1.73;;;0.80;;
11490;SDS011;5802;52.832;4.758;2023-08-07T00:50:31;1.58;;;0.73;;
11490;SDS011;5802;52.832;4.758;2023-08-07T00:52:58;1.05;;;0.77;;
11490;SDS011;5802;52.832;4.758;2023-08-07T00:55:25;2.15;;;0.82;;
11490;SDS011;5802;52.832;4.758;2023-08-07T00:57:52;1.08;;;0.70;;
11490;SDS011;5802;52.832;4.758;2023-08-07T01:00:20;1.02;;;0.73;;
11490;SDS011;5802;52.832;4.758;2023-08-07T01:02:47;2.00;;;0.90;;
11490;SDS011;5802;52.832;4.758;2023-08-07T01:05:16;2.15;;;0.82;;
11490;SDS011;5802;52.832;4.758;2023-08-07T01:07:43;2.28;;;0.85;;
11490;SDS011;5802;52.832;4.758;2023-08-07T01:10:09;2.05;;;0.88;;
11490;SDS011;5802;52.832;4.758;2023-08-07T01:12:39;1.42;;;0.90;;
11490;SDS011;5802;52.832;4.758;2023-08-07T01:15:12;1.75;;;0.80;;
11490;SDS011;5802;52.832;4.758;2023-08-07T01:17:43;1.80;;;0.90;;
11490;SDS011;5802;52.832;4.758;2023-08-07T01:20:12;2.22;;;1.10;;
11490;SDS011;5802;52.832;4.758;2023-08-07T01:22:40;3.10;;;1.10;;
11490;SDS011;5802;52.832;4.758;2023-08-07T01:25:07;2.30;;;0.90;;
11490;SDS011;5802;52.832;4.758;2023-08-07T01:27:35;1.45;;;0.93;;
11490;SDS011;5802;52.832;4.758;2023-08-07T01:30:07;1.50;;;1.10;;
11490;SDS011;5802;52.832;4.758;2023-08-07T01:32:40;2.22;;;1.00;;
11490;SDS011;5802;52.832;4.758;2023-08-07T01:35:14;2.15;;;0.90;;
11490;SDS011;5802;52.832;4.758;2023-08-07T01:37:43;2.15;;;0.93;;
11490;SDS011;5802;52.832;4.758;2023-08-07T01:40:12;1.10;;;0.90;;
11490;SDS011;5802;52.832;4.758;2023-08-07T01:42:40;1.52;;;0.80;;
11490;SDS011;5802;52.832;4.758;2023-08-07T01:45:07;1.30;;;0.93;;
11490;SDS011;5802;52.832;4.758;2023-08-07T01:47:34;1.88;;;0.90;;
11490;SDS011;5802;52.832;4.758;2023-08-07T01:50:00;3.75;;;0.98;;
11490;SDS011;5802;52.832;4.758;2023-08-07T01:52:27;2.30;;;1.08;;
11490;SDS011;5802;52.832;4.758;2023-08-07T01:54:55;1.70;;;1.00;;
11490;SDS011;5802;52.832;4.758;2023-08-07T01:57:22;1.67;;;1.27;;
11490;SDS011;5802;52.832;4.758;2023-08-07T01:59:49;1.67;;;1.00;;
11490;SDS011;5802;52.832;4.758;2023-08-07T02:02:15;3.40;;;0.90;;
11490;SDS011;5802;52.832;4.758;2023-08-07T02:04:42;3.13;;;1.10;;
11490;SDS011;5802;52.832;4.758;2023-08-07T02:07:09;1.88;;;0.90;;
11490;SDS011;5802;52.832;4.758;2023-08-07T02:09:36;2.97;;;1.13;;
11490;SDS011;5802;52.832;4.758;2023-08-07T02:12:04;2.22;;;1.10;;
11490;SDS011;5802;52.832;4.758;2023-08-07T02:14:32;2.03;;;1.10;;
11490;SDS011;5802;52.832;4.758;2023-08-07T02:16:58;4.85;;;1.08;;
11490;SDS011;5802;52.832;4.758;2023-08-07T02:19:25;2.33;;;1.20;;
11490;SDS011;5802;52.832;4.758;2023-08-07T02:21:52;2.88;;;0.93;;
11490;SDS011;5802;52.832;4.758;2023-08-07T02:24:18;2.17;;;1.10;;
11490;SDS011;5802;52.832;4.758;2023-08-07T02:26:45;2.00;;;0.80;;
11490;SDS011;5802;52.832;4.758;2023-08-07T02:29:13;3.42;;;1.10;;
11490;SDS011;5802;52.832;4.758;2023-08-07T02:31:40;3.10;;;1.10;;
11490;SDS011;5802;52.832;4.758;2023-08-07T02:34:06;2.78;;;1.33;;
11490;SDS011;5802;52.832;4.758;2023-08-07T02:36:33;2.05;;;1.05;;
11490;SDS011;5802;52.832;4.758;2023-08-07T02:39:00;3.05;;;1.10;;
11490;SDS011;5802;52.832;4.758;2023-08-07T02:41:26;4.05;;;1.13;;
11490;SDS011;5802;52.832;4.758;2023-08-07T02:43:53;1.80;;;1.17;;
11490;SDS011;5802;52.832;4.758;2023-08-07T02:46:21;1.70;;;1.20;;
11490;SDS011;5802;52.832;4.758;2023-08-07T02:48:48;2.42;;;1.20;;
11490;SDS011;5802;52.832;4.758;2023-08-07T02:51:15;2.08;;;0.75;;
11490;SDS011;5802;52.832;4.758;2023-08-07T02:53:41;2.53;;;1.10;;
11490;SDS011;5802;52.832;4.758;2023-08-07T02:56:08;2.58;;;1.23;;
11490;SDS011;5802;52.832;4.758;2023-08-07T02:58:35;2.13;;;1.08;;
11490;SDS011;5802;52.832;4.758;2023-08-07T03:01:05;2.90;;;1.35;;
11490;SDS011;5802;52.832;4.758;2023-08-07T03:03:33;1.70;;;0.98;;
11490;SDS011;5802;52.832;4.758;2023-08-07T03:06:00;4.10;;;1.48;;
11490;SDS011;5802;52.832;4.758;2023-08-07T03:08:27;2.28;;;1.30;;
11490;SDS011;5802;52.832;4.758;2023-08-07T03:10:54;2.42;;;1.23;;
11490;SDS011;5802;52.832;4.758;2023-08-07T03:13:22;2.15;;;1.10;;
11490;SDS011;5802;52.832;4.758;2023-08-07T03:15:48;3.08;;;1.30;;
11490;SDS011;5802;52.832;4.758;2023-08-07T03:18:15;3.03;;;1.27;;
11490;SDS011;5802;52.832;4.758;2023-08-07T03:20:43;1.77;;;1.20;;
11490;SDS011;5802;52.832;4.758;2023-08-07T03:23:10;2.95;;;1.00;;
11490;SDS011;5802;52.832;4.758;2023-08-07T03:25:37;3.10;;;1.13;;
11490;SDS011;5802;52.832;4.758;2023-08-07T03:28:04;3.97;;;1.10;;
11490;SDS011;5802;52.832;4.758;2023-08-07T03:30:30;2.90;;;1.20;;
11490;SDS011;5802;52.832;4.758;2023-08-07T03:32:57;2.60;;;1.10;;
11490;SDS011;5802;52.832;4.758;2023-08-07T03:35:24;2.25;;;1.20;;
11490;SDS011;5802;52.832;4.758;2023-08-07T03:37:52;2.42;;;1.30;;
11490;SDS011;5802;52.832;4.758;2023-08-07T03:40:18;1.77;;;1.20;;
11490;SDS011;5802;52.832;4.758;2023-08-07T03:42:45;2.20;;;1.38;;
11490;SDS011;5802;52.832;4.758;2023-08-07T03:45:11;2.42;;;1.25;;
11490;SDS011;5802;52.832;4.758;2023-08-07T03:47:39;2.47;;;1.08;;
11490;SDS011;5802;52.832;4.758;2023-08-07T03:50:06;2.25;;;1.10;;
11490;SDS011;5802;52.832;4.758;2023-08-07T03:52:33;2.22;;;1.10;;
11490;SDS011;5802;52.832;4.758;2023-08-07T03:55:01;1.65;;;1.10;;
11490;SDS011;5802;52.832;4.758;2023-08-07T03:57:28;2.22;;;1.10;;
11490;SDS011;5802;52.832;4.758;2023-08-07T03:59:54;2.40;;;1.10;;
11490;SDS011;5802;52.832;4.758;2023-08-07T04:02:21;1.73;;;0.95;;
11490;SDS011;5802;52.832;4.758;2023-08-07T04:04:48;2.03;;;1.17;;
11490;SDS011;5802;52.832;4.758;2023-08-07T04:07:15;3.05;;;1.25;;
11490;SDS011;5802;52.832;4.758;2023-08-07T04:09:42;3.33;;;1.20;;
11490;SDS011;5802;52.832;4.758;2023-08-07T04:12:10;2.13;;;0.93;;
11490;SDS011;5802;52.832;4.758;2023-08-07T04:14:36;2.00;;;1.05;;
11490;SDS011;5802;52.832;4.758;2023-08-07T04:17:03;2.33;;;1.00;;
11490;SDS011;5802;52.832;4.758;2023-08-07T04:19:30;2.40;;;1.00;;
11490;SDS011;5802;52.832;4.758;2023-08-07T04:21:57;2.55;;;1.10;;
11490;SDS011;5802;52.832;4.758;2023-08-07T04:24:23;2.08;;;1.20;;
11490;SDS011;5802;52.832;4.758;2023-08-07T04:26:50;2.13;;;1.35;;
11490;SDS011;5802;52.832;4.758;2023-08-07T04:29:19;4.55;;;1.23;;
11490;SDS011;5802;52.832;4.758;2023-08-07T04:31:46;1.73;;;1.13;;
11490;SDS011;5802;52.832;4.758;2023-08-07T04:34:13;1.90;;;1.27;;
11490;SDS011;5802;52.832;4.758;2023-08-07T04:36:39;1.85;;;1.13;;
11490;SDS011;5802;52.832;4.758;2023-08-07T04:39:06;2.60;;;1.30;;
11490;SDS011;5802;52.832;4.758;2023-08-07T04:41:33;1.58;;;0.98;;
11490;SDS011;5802;52.832;4.758;2023-08-07T04:44:00;2.22;;;1.00;;
11490;SDS011;5802;52.832;4.758;2023-08-07T04:46:28;2.75;;;1.13;;
11490;SDS011;5802;52.832;4.758;2023-08-07T04:48:55;2.70;;;1.10;;
11490;SDS011;5802;52.832;4.758;2023-08-07T04:51:21;2.65;;;1.00;;
11490;SDS011;5802;52.832;4.758;2023-08-07T04:53:48;1.52;;;1.02;;
11490;SDS011;5802;52.832;4.758;2023-08-07T04:56:16;2.72;;;1.30;;
11490;SDS011;5802;52.832;4.758;2023-08-07T04:58:43;3.17;;;1.10;;
11490;SDS011;5802;52.832;4.758;2023-08-07T05:01:09;1.67;;;1.00;;
11490;SDS011;5802;52.832;4.758;2023-08-07T05:03:37;1.55;;;1.10;;
11490;SDS011;5802;52.832;4.758;2023-08-07T05:06:04;3.33;;;1.35;;
11490;SDS011;5802;52.832;4.758;2023-08-07T05:08:31;2.13;;;1.10;;
11490;SDS011;5802;52.832;4.758;2023-08-07T05:10:57;2.72;;;1.35;;
11490;SDS011;5802;52.832;4.758;2023-08-07T05:13:24;2.30;;;1.23;;
11490;SDS011;5802;52.832;4.758;2023-08-07T05:15:51;2.40;;;1.20;;
11490;SDS011;5802;52.832;4.758;2023-08-07T05:18:17;2.47;;;1.25;;
11490;SDS011;5802;52.832;4.758;2023-08-07T05:20:46;1.50;;;1.05;;
11490;SDS011;5802;52.832;4.758;2023-08-07T05:23:12;2.38;;;1.10;;
11490;SDS011;5802;52.832;4.758;2023-08-07T05:25:39;3.20;;;1.23;;
11490;SDS011;5802;52.832;4.758;2023-08-07T05:28:06;1.58;;;1.00;;
11490;SDS011;5802;52.832;4.758;2023-08-07T05:30:32;2.10;;;1.02;;
11490;SDS011;5802;52.832;4.758;2023-08-07T05:32:59;2.30;;;1.15;;
11490;SDS011;5802;52.832;4.758;2023-08-07T05:35:26;2.85;;;1.38;;
11490;SDS011;5802;52.832;4.758;2023-08-07T05:37:54;1.88;;;1.20;;
11490;SDS011;5802;52.832;4.758;2023-08-07T05:40:20;2.47;;;1.00;;
11490;SDS011;5802;52.832;4.758;2023-08-07T05:42:47;2.25;;;1.10;;
11490;SDS011;5802;52.832;4.758;2023-08-07T05:45:13;1.40;;;0.90;;
11490;SDS011;5802;52.832;4.758;2023-08-07T05:47:40;1.95;;;1.10;;
11490;SDS011;5802;52.832;4.758;2023-08-07T05:50:07;2.28;;;1.10;;
11490;SDS011;5802;52.832;4.758;2023-08-07T05:52:34;2.97;;;1.10;;
11490;SDS011;5802;52.832;4.758;2023-08-07T05:55:02;1.50;;;1.10;;
11490;SDS011;5802;52.832;4.758;2023-08-07T05:57:29;1.60;;;1.30;;
11490;SDS011;5802;52.832;4.758;2023-08-07T05:59:56;1.52;;;1.10;;
11490;SDS011;5802;52.832;4.758;2023-08-07T06:02:23;2.63;;;1.35;;
11490;SDS011;5802;52.832;4.758;2023-08-07T06:04:50;2.17;;;1.20;;
11490;SDS011;5802;52.832;4.758;2023-08-07T06:07:17;2.78;;;1.08;;
11490;SDS011;5802;52.832;4.758;2023-08-07T06:09:44;1.55;;;1.00;;
11490;SDS011;5802;52.832;4.758;2023-08-07T06:12:12;1.60;;;1.13;;
11490;SDS011;5802;52.832;4.758;2023-08-07T06:14:39;2.05;;;1.20;;
11490;SDS011;5802;52.832;4.758;2023-08-07T06:17:05;1.90;;;1.17;;
11490;SDS011;5802;52.832;4.758;2023-08-07T06:19:32;1.73;;;1.27;;
11490;SDS011;5802;52.832;4.758;2023-08-07T06:21:59;2.10;;;1.20;;
11490;SDS011;5802;52.832;4.758;2023-08-07T06:24:26;1.48;;;1.08;;
11490;SDS011;5802;52.832;4.758;2023-08-07T06:26:52;2.40;;;1.10;;
11490;SDS011;5802;52.832;4.758;2023-08-07T06:29:20;1.60;;;1.10;;
11490;SDS011;5802;52.832;4.758;2023-08-07T06:31:47;2.63;;;1.20;;
11490;SDS011;5802;52.832;4.758;2023-08-07T06:34:14;3.92;;;1.00;;
11490;SDS011;5802;52.832;4.758;2023-08-07T06:36:40;1.98;;;1.20;;
11490;SDS011;5802;52.832;4.758;2023-08-07T06:39:07;1.95;;;0.90;;
11490;SDS011;5802;52.832;4.758;2023-08-07T06:41:34;1.77;;;1.13;;
11490;SDS011;5802;52.832;4.758;2023-08-07T06:44:01;1.88;;;1.20;;
11490;SDS011;5802;52.832;4.758;2023-08-07T06:46:29;1.92;;;1.15;;
11490;SDS011;5802;52.832;4.758;2023-08-07T06:48:55;2.97;;;1.30;;
11490;SDS011;5802;52.832;4.758;2023-08-07T06:51:22;1.30;;;1.10;;
11490;SDS011;5802;52.832;4.758;2023-08-07T06:53:49;1.70;;;1.10;;
11490;SDS011;5802;52.832;4.758;2023-08-07T06:56:15;1.90;;;1.10;;
11490;SDS011;5802;52.832;4.758;2023-08-07T06:58:42;1.48;;;1.08;;
11490;SDS011;5802;52.832;4.758;2023-08-07T07:01:09;2.40;;;1.23;;
11490;SDS011;5802;52.832;4.758;2023-08-07T07:03:37;1.63;;;1.10;;
11490;SDS011;5802;52.832;4.758;2023-08-07T07:06:04;2.75;;;1.20;;
11490;SDS011;5802;52.832;4.758;2023-08-07T07:08:30;2.35;;;1.20;;
11490;SDS011;5802;52.832;4.758;2023-08-07T07:10:57;3.72;;;1.40;;
11490;SDS011;5802;52.832;4.758;2023-08-07T07:13:30;3.20;;;1.20;;
11490;SDS011;5802;52.832;4.758;2023-08-07T07:15:56;1.83;;;1.23;;
11490;SDS011;5802;52.832;4.758;2023-08-07T07:18:23;1.67;;;1.10;;
11490;SDS011;5802;52.832;4.758;2023-08-07T07:20:57;1.55;;;1.15;;
11490;SDS011;5802;52.832;4.758;2023-08-07T07:23:25;2.05;;;1.30;;
11490;SDS011;5802;52.832;4.758;2023-08-07T07:25:52;1.42;;;1.02;;
11490;SDS011;5802;52.832;4.758;2023-08-07T07:28:18;2.80;;;1.15;;
11490;SDS011;5802;52.832;4.758;2023-08-07T07:30:45;2.70;;;1.30;;
11490;SDS011;5802;52.832;4.758;2023-08-07T07:33:12;2.22;;;1.25;;
11490;SDS011;5802;52.832;4.758;2023-08-07T07:35:39;1.05;;;0.90;;
11490;SDS011;5802;52.832;4.758;2023-08-07T07:38:07;1.85;;;1.20;;
11490;SDS011;5802;52.832;4.758;2023-08-07T07:40:35;2.42;;;1.30;;
11490;SDS011;5802;52.832;4.758;2023-08-07T07:43:02;1.60;;;1.15;;
11490;SDS011;5802;52.832;4.758;2023-08-07T07:45:32;2.78;;;1.25;;
11490;SDS011;5802;52.832;4.758;2023-08-07T07:47:58;2.08;;;1.13;;
11490;SDS011;5802;52.832;4.758;2023-08-07T07:50:25;1.90;;;1.20;;
11490;SDS011;5802;52.832;4.758;2023-08-07T07:52:52;2.15;;;1.17;;
11490;SDS011;5802;52.832;4.758;2023-08-07T07:55:20;2.05;;;1.10;;
11490;SDS011;5802;52.832;4.758;2023-08-07T07:57:46;1.63;;;1.02;;
11490;SDS011;5802;52.832;4.758;2023-08-07T08:00:13;1.60;;;1.10;;
11490;SDS011;5802;52.832;4.758;2023-08-07T08:02:40;1.17;;;1.00;;
11490;SDS011;5802;52.832;4.758;2023-08-07T08:05:08;1.75;;;1.10;;
11490;SDS011;5802;52.832;4.758;2023-08-07T08:07:35;1.67;;;0.90;;
11490;SDS011;5802;52.832;4.758;2023-08-07T08:10:04;2.42;;;1.10;;
11490;SDS011;5802;52.832;4.758;2023-08-07T08:12:33;1.75;;;1.15;;
11490;SDS011;5802;52.832;4.758;2023-08-07T08:15:00;1.50;;;1.30;;
11490;SDS011;5802;52.832;4.758;2023-08-07T08:17:27;1.73;;;1.20;;
11490;SDS011;5802;52.832;4.758;2023-08-07T08:19:53;2.60;;;1.20;;
11490;SDS011;5802;52.832;4.758;2023-08-07T08:22:22;1.50;;;1.00;;
11490;SDS011;5802;52.832;4.758;2023-08-07T08:24:49;1.73;;;1.17;;
11490;SDS011;5802;52.832;4.758;2023-08-07T08:27:15;1.23;;;1.00;;
11490;SDS011;5802;52.832;4.758;2023-08-07T08:29:44;1.52;;;1.05;;
11490;SDS011;5802;52.832;4.758;2023-08-07T08:32:11;1.77;;;1.00;;
11490;SDS011;5802;52.832;4.758;2023-08-07T08:34:38;2.17;;;1.20;;
11490;SDS011;5802;52.832;4.758;2023-08-07T08:37:04;2.30;;;1.00;;
11490;SDS011;5802;52.832;4.758;2023-08-07T08:39:31;1.23;;;1.10;;
11490;SDS011;5802;52.832;4.758;2023-08-07T08:41:58;1.67;;;1.02;;
11490;SDS011;5802;52.832;4.758;2023-08-07T08:44:25;1.73;;;1.10;;
11490;SDS011;5802;52.832;4.758;2023-08-07T08:46:55;1.30;;;0.88;;
11490;SDS011;5802;52.832;4.758;2023-08-07T08:49:28;2.20;;;0.90;;
11490;SDS011;5802;52.832;4.758;2023-08-07T08:52:01;1.92;;;1.00;;
11490;SDS011;5802;52.832;4.758;2023-08-07T08:54:29;1.27;;;0.93;;
11490;SDS011;5802;52.832;4.758;2023-08-07T08:56:57;1.33;;;0.93;;
11490;SDS011;5802;52.832;4.758;2023-08-07T08:59:24;2.45;;;1.02;;
11490;SDS011;5802;52.832;4.758;2023-08-07T09:01:52;1.92;;;1.20;;
11490;SDS011;5802;52.832;4.758;2023-08-07T09:04:20;1.13;;;0.90;;
11490;SDS011;5802;52.832;4.758;2023-08-07T09:06:46;1.13;;;0.80;;
11490;SDS011;5802;52.832;4.758;2023-08-07T09:09:14;1.85;;;1.17;;
11490;SDS011;5802;52.832;4.758;2023-08-07T09:11:42;1.13;;;1.00;;
11490;SDS011;5802;52.832;4.758;2023-08-07T09:14:11;2.38;;;1.08;;
11490;SDS011;5802;52.832;4.758;2023-08-07T09:16:41;1.30;;;0.90;;
11490;SDS011;5802;52.832;4.758;2023-08-07T09:19:09;1.95;;;1.08;;
11490;SDS011;5802;52.832;4.758;2023-08-07T09:21:38;1.30;;;1.00;;
11490;SDS011;5802;52.832;4.758;2023-08-07T09:24:05;1.50;;;1.00;;
11490;SDS011;5802;52.832;4.758;2023-08-07T09:26:32;1.70;;;1.08;;
11490;SDS011;5802;52.832;4.758;2023-08-07T09:28:59;1.90;;;1.17;;
11490;SDS011;5802;52.832;4.758;2023-08-07T09:31:27;1.63;;;1.20;;
11490;SDS011;5802;52.832;4.758;2023-08-07T09:33:58;2.80;;;1.60;;
11490;SDS011;5802;52.832;4.758;2023-08-07T09:36:29;1.10;;;0.90;;
11490;SDS011;5802;52.832;4.758;2023-08-07T09:39:01;2.35;;;1.20;;
11490;SDS011;5802;52.832;4.758;2023-08-07T09:41:29;1.42;;;1.10;;
11490;SDS011;5802;52.832;4.758;2023-08-07T09:43:56;2.28;;;1.15;;
11490;SDS011;5802;52.832;4.758;2023-08-07T09:46:23;1.48;;;1.10;;
11490;SDS011;5802;52.832;4.758;2023-08-07T09:48:51;2.47;;;1.20;;
11490;SDS011;5802;52.832;4.758;2023-08-07T09:51:23;4.97;;;0.93;;
11490;SDS011;5802;52.832;4.758;2023-08-07T09:53:49;1.70;;;1.20;;
11490;SDS011;5802;52.832;4.758;2023-08-07T09:56:18;1.73;;;1.10;;
11490;SDS011;5802;52.832;4.758;2023-08-07T09:58:47;1.30;;;1.15;;
11490;SDS011;5802;52.832;4.758;2023-08-07T10:01:15;1.92;;;1.10;;
11490;SDS011;5802;52.832;4.758;2023-08-07T10:03:42;3.45;;;1.30;;
11490;SDS011;5802;52.832;4.758;2023-08-07T10:06:09;2.22;;;1.10;;
11490;SDS011;5802;52.832;4.758;2023-08-07T10:08:37;1.88;;;1.10;;
11490;SDS011;5802;52.832;4.758;2023-08-07T10:11:04;1.63;;;1.15;;
11490;SDS011;5802;52.832;4.758;2023-08-07T10:13:33;5.43;;;1.27;;
11490;SDS011;5802;52.832;4.758;2023-08-07T10:16:00;2.30;;;1.30;;
11490;SDS011;5802;52.832;4.758;2023-08-07T10:18:27;1.80;;;1.23;;
11490;SDS011;5802;52.832;4.758;2023-08-07T10:20:54;3.42;;;1.58;;
11490;SDS011;5802;52.832;4.758;2023-08-07T10:23:23;2.05;;;1.15;;
11490;SDS011;5802;52.832;4.758;2023-08-07T10:25:53;2.85;;;1.50;;
11490;SDS011;5802;52.832;4.758;2023-08-07T10:28:21;2.22;;;1.50;;
11490;SDS011;5802;52.832;4.758;2023-08-07T10:30:51;3.25;;;1.38;;
11490;SDS011;5802;52.832;4.758;2023-08-07T10:33:18;2.47;;;1.30;;
11490;SDS011;5802;52.832;4.758;2023-08-07T10:35:45;3.35;;;1.50;;
11490;SDS011;5802;52.832;4.758;2023-08-07T10:38:13;1.98;;;1.25;;
11490;SDS011;5802;52.832;4.758;2023-08-07T10:40:59;1.38;;;1.10;;
11490;SDS011;5802;52.832;4.758;2023-08-07T10:43:28;2.95;;;1.40;;
11490;SDS011;5802;52.832;4.758;2023-08-07T10:46:00;1.75;;;1.20;;
11490;SDS011;5802;52.832;4.758;2023-08-07T10:48:30;1.88;;;1.10;;
11490;SDS011;5802;52.832;4.758;2023-08-07T10:51:04;2.10;;;1.38;;
11490;SDS011;5802;52.832;4.758;2023-08-07T10:53:32;1.98;;;1.23;;
11490;SDS011;5802;52.832;4.758;2023-08-07T10:56:01;2.00;;;1.23;;
11490;SDS011;5802;52.832;4.758;2023-08-07T10:58:29;2.47;;;1.40;;
11490;SDS011;5802;52.832;4.758;2023-08-07T11:01:17;2.65;;;1.33;;
11490;SDS011;5802;52.832;4.758;2023-08-07T11:03:45;4.05;;;1.50;;
11490;SDS011;5802;52.832;4.758;2023-08-07T11:06:15;3.42;;;1.27;;
11490;SDS011;5802;52.832;4.758;2023-08-07T11:08:42;2.00;;;1.30;;
11490;SDS011;5802;52.832;4.758;2023-08-07T11:11:08;1.67;;;1.30;;
11490;SDS011;5802;52.832;4.758;2023-08-07T11:13:35;2.65;;;1.23;;
11490;SDS011;5802;52.832;4.758;2023-08-07T11:16:02;2.55;;;1.13;;
11490;SDS011;5802;52.832;4.758;2023-08-07T11:18:33;2.03;;;1.10;;
11490;SDS011;5802;52.832;4.758;2023-08-07T11:21:01;3.00;;;1.42;;
11490;SDS011;5802;52.832;4.758;2023-08-07T11:23:28;2.28;;;1.52;;
11490;SDS011;5802;52.832;4.758;2023-08-07T11:25:55;3.03;;;1.50;;
11490;SDS011;5802;52.832;4.758;2023-08-07T11:28:22;2.65;;;1.30;;
11490;SDS011;5802;52.832;4.758;2023-08-07T11:30:49;2.65;;;1.38;;
11490;SDS011;5802;52.832;4.758;2023-08-07T11:33:17;3.55;;;1.60;;
11490;SDS011;5802;52.832;4.758;2023-08-07T11:35:45;3.78;;;1.30;;
11490;SDS011;5802;52.832;4.758;2023-08-07T11:38:15;3.45;;;1.50;;
11490;SDS011;5802;52.832;4.758;2023-08-07T11:40:56;2.70;;;1.60;;
11490;SDS011;5802;52.832;4.758;2023-08-07T11:43:23;2.83;;;1.60;;
11490;SDS011;5802;52.832;4.758;2023-08-07T11:45:49;2.08;;;1.40;;
11490;SDS011;5802;52.832;4.758;2023-08-07T11:48:16;3.33;;;1.45;;
11490;SDS011;5802;52.832;4.758;2023-08-07T11:50:43;3.22;;;1.50;;
11490;SDS011;5802;52.832;4.758;2023-08-07T11:53:11;1.77;;;1.35;;
11490;SDS011;5802;52.832;4.758;2023-08-07T11:55:45;4.43;;;1.67;;
11490;SDS011;5802;52.832;4.758;2023-08-07T11:58:13;2.78;;;1.48;;
11490;SDS011;5802;52.832;4.758;2023-08-07T12:00:41;3.88;;;1.58;;
11490;SDS011;5802;52.832;4.758;2023-08-07T12:03:22;2.35;;;1.40;;
11490;SDS011;5802;52.832;4.758;2023-08-07T12:05:51;3.90;;;1.45;;
11490;SDS011;5802;52.832;4.758;2023-08-07T12:08:19;2.80;;;1.38;;
11490;SDS011;5802;52.832;4.758;2023-08-07T12:10:48;2.15;;;1.35;;
11490;SDS011;5802;52.832;4.758;2023-08-07T12:13:16;3.33;;;1.63;;
11490;SDS011;5802;52.832;4.758;2023-08-07T12:15:45;4.15;;;1.50;;
11490;SDS011;5802;52.832;4.758;2023-08-07T12:18:12;2.97;;;1.48;;
11490;SDS011;5802;52.832;4.758;2023-08-07T12:20:40;2.15;;;1.38;;
11490;SDS011;5802;52.832;4.758;2023-08-07T12:23:10;4.63;;;1.30;;
11490;SDS011;5802;52.832;4.758;2023-08-07T12:25:41;3.72;;;1.45;;
11490;SDS011;5802;52.832;4.758;2023-08-07T12:28:07;3.80;;;1.70;;
11490;SDS011;5802;52.832;4.758;2023-08-07T12:30:34;3.03;;;2.00;;
11490;SDS011;5802;52.832;4.758;2023-08-07T12:33:02;3.28;;;1.60;;
11490;SDS011;5802;52.832;4.758;2023-08-07T12:35:29;2.88;;;1.50;;
11490;SDS011;5802;52.832;4.758;2023-08-07T12:37:56;5.25;;;1.42;;
11490;SDS011;5802;52.832;4.758;2023-08-07T12:40:22;4.57;;;1.70;;
11490;SDS011;5802;52.832;4.758;2023-08-07T12:42:51;3.30;;;1.63;;
11490;SDS011;5802;52.832;4.758;2023-08-07T12:45:18;2.10;;;1.40;;
11490;SDS011;5802;52.832;4.758;2023-08-07T12:47:45;3.15;;;1.65;;
11490;SDS011;5802;52.832;4.758;2023-08-07T12:50:12;1.98;;;1.30;;
11490;SDS011;5802;52.832;4.758;2023-08-07T12:52:38;2.15;;;1.33;;
11490;SDS011;5802;52.832;4.758;2023-08-07T12:55:05;3.28;;;1.48;;
11490;SDS011;5802;52.832;4.758;2023-08-07T12:57:33;3.30;;;1.55;;
11490;SDS011;5802;52.832;4.758;2023-08-07T13:00:01;2.53;;;1.58;;
11490;SDS011;5802;52.832;4.758;2023-08-07T13:02:28;2.45;;;1.30;;
11490;SDS011;5802;52.832;4.758;2023-08-07T13:04:54;2.00;;;1.42;;
11490;SDS011;5802;52.832;4.758;2023-08-07T13:07:22;2.88;;;1.40;;
11490;SDS011;5802;52.832;4.758;2023-08-07T13:09:50;3.05;;;1.50;;
11490;SDS011;5802;52.832;4.758;2023-08-07T13:12:16;2.85;;;1.40;;
11490;SDS011;5802;52.832;4.758;2023-08-07T13:14:43;2.38;;;1.40;;
11490;SDS011;5802;52.832;4.758;2023-08-07T13:17:11;3.78;;;1.60;;
11490;SDS011;5802;52.832;4.758;2023-08-07T13:19:38;3.70;;;1.90;;
11490;SDS011;5802;52.832;4.758;2023-08-07T13:22:04;4.28;;;1.70;;
11490;SDS011;5802;52.832;4.758;2023-08-07T13:24:33;5.65;;;1.80;;
11490;SDS011;5802;52.832;4.758;2023-08-07T13:27:00;2.60;;;1.50;;
11490;SDS011;5802;52.832;4.758;2023-08-07T13:29:28;2.63;;;1.50;;
11490;SDS011;5802;52.832;4.758;2023-08-07T13:31:55;2.67;;;1.33;;
11490;SDS011;5802;52.832;4.758;2023-08-07T13:34:23;2.30;;;1.40;;
11490;SDS011;5802;52.832;4.758;2023-08-07T13:36:49;2.50;;;1.60;;
11490;SDS011;5802;52.832;4.758;2023-08-07T13:39:16;3.13;;;1.80;;
11490;SDS011;5802;52.832;4.758;2023-08-07T13:41:43;2.72;;;1.60;;
11490;SDS011;5802;52.832;4.758;2023-08-07T13:44:09;2.38;;;1.35;;
11490;SDS011;5802;52.832;4.758;2023-08-07T13:46:37;3.30;;;1.50;;
11490;SDS011;5802;52.832;4.758;2023-08-07T13:49:03;3.08;;;1.40;;
11490;SDS011;5802;52.832;4.758;2023-08-07T13:51:31;3.72;;;1.60;;
11490;SDS011;5802;52.832;4.758;2023-08-07T13:53:58;3.78;;;1.70;;
11490;SDS011;5802;52.832;4.758;2023-08-07T13:56:25;3.65;;;1.73;;
11490;SDS011;5802;52.832;4.758;2023-08-07T13:58:51;4.68;;;1.67;;
11490;SDS011;5802;52.832;4.758;2023-08-07T14:01:19;2.22;;;1.30;;
11490;SDS011;5802;52.832;4.758;2023-08-07T14:03:46;2.83;;;1.27;;
11490;SDS011;5802;52.832;4.758;2023-08-07T14:06:13;2.88;;;1.70;;
11490;SDS011;5802;52.832;4.758;2023-08-07T14:08:41;1.55;;;1.35;;
11490;SDS011;5802;52.832;4.758;2023-08-07T14:11:08;2.55;;;1.48;;
11490;SDS011;5802;52.832;4.758;2023-08-07T14:13:34;2.50;;;1.40;;
11490;SDS011;5802;52.832;4.758;2023-08-07T14:16:01;3.38;;;1.55;;
11490;SDS011;5802;52.832;4.758;2023-08-07T14:18:28;1.60;;;1.30;;
11490;SDS011;5802;52.832;4.758;2023-08-07T14:20:54;5.38;;;1.70;;
11490;SDS011;5802;52.832;4.758;2023-08-07T14:23:21;2.72;;;1.52;;
11490;SDS011;5802;52.832;4.758;2023-08-07T14:25:49;6.18;;;1.52;;
11490;SDS011;5802;52.832;4.758;2023-08-07T14:28:17;2.97;;;1.70;;
11490;SDS011;5802;52.832;4.758;2023-08-07T14:30:45;2.53;;;1.65;;
11490;SDS011;5802;52.832;4.758;2023-08-07T14:33:11;3.25;;;1.30;;
11490;SDS011;5802;52.832;4.758;2023-08-07T14:35:38;2.17;;;1.50;;
11490;SDS011;5802;52.832;4.758;2023-08-07T14:38:05;6.03;;;1.42;;
11490;SDS011;5802;52.832;4.758;2023-08-07T14:40:31;2.97;;;1.65;;
11490;SDS011;5802;52.832;4.758;2023-08-07T14:42:59;3.90;;;1.73;;
11490;SDS011;5802;52.832;4.758;2023-08-07T14:45:26;2.55;;;1.30;;
11490;SDS011;5802;52.832;4.758;2023-08-07T14:47:53;2.97;;;1.55;;
11490;SDS011;5802;52.832;4.758;2023-08-07T14:50:19;3.92;;;1.67;;
11490;SDS011;5802;52.832;4.758;2023-08-07T14:52:46;3.53;;;1.27;;
11490;SDS011;5802;52.832;4.758;2023-08-07T14:55:13;2.85;;;1.52;;
11490;SDS011;5802;52.832;4.758;2023-08-07T14:57:39;3.03;;;1.60;;
11490;SDS011;5802;52.832;4.758;2023-08-07T15:00:08;4.10;;;1.67;;
11490;SDS011;5802;52.832;4.758;2023-08-07T15:02:35;2.72;;;1.58;;